Time;durP1;ratioP1;P1;durP2;ratioP2;P2;SDS_P1;SDS_P2;PMS_P1;PMS_P2;Temp;Humidity;BMP_temperature;BMP_pressure;BME280_temperature;BME280_humidity;BME280_pressure;Samples;Min_cycle;Max_cycle;Signal;HPM_P1;HPM_P2
2024/04/05 00:00:40;;;;;;;22.42;5.13;;;14.00;99.90;;;;;;5091533;27;20479;-75
2024/04/05 00:03:07;;;;;;;28.10;5.93;;;13.80;99.90;;;;;;5108170;27;20445;-74
2024/04/05 00:05:33;;;;;;;28.75;5.28;;;13.80;99.90;;;;;;5109065;27;20020;-75
2024/04/05 00:07:59;;;;;;;28.23;5.65;;;13.80;99.90;;;;;;5108850;27;20079;-75
2024/04/05 00:10:25;;;;;;;27.88;5.65;;;13.80;99.90;;;;;;5108716;27;20047;-75
2024/04/05 00:12:51;;;;;;;31.80;5.82;;;13.80;99.90;;;;;;5108508;27;20051;-75
2024/04/05 00:15:17;;;;;;;26.52;5.60;;;13.80;99.90;;;;;;5108860;27;20777;-74
2024/04/05 00:17:45;;;;;;;19.67;4.97;;;13.80;99.90;;;;;;5108970;27;20534;-74
2024/04/05 00:20:11;;;;;;;26.50;5.10;;;13.80;99.90;;;;;;5107129;27;20026;-74
2024/04/05 00:22:36;;;;;;;26.80;5.45;;;13.80;99.90;;;;;;5108849;27;20032;-74
2024/04/05 00:25:02;;;;;;;25.25;5.65;;;13.80;99.90;;;;;;5105761;27;20024;-74
2024/04/05 00:27:28;;;;;;;30.45;5.25;;;13.80;99.90;;;;;;5108093;27;20481;-74
2024/04/05 00:29:54;;;;;;;26.40;6.28;;;13.70;99.90;;;;;;5108397;27;20024;-74
2024/04/05 00:32:21;;;;;;;24.67;5.57;;;13.70;99.90;;;;;;5107983;27;20395;-74
2024/04/05 00:34:47;;;;;;;22.38;4.53;;;13.70;99.90;;;;;;5108001;27;20028;-74
2024/04/05 00:37:13;;;;;;;24.48;5.28;;;13.70;99.90;;;;;;5108541;27;20084;-74
2024/04/05 00:39:39;;;;;;;20.83;5.75;;;13.80;99.90;;;;;;5108919;27;20023;-74
2024/04/05 00:42:05;;;;;;;28.30;6.00;;;13.80;99.90;;;;;;5107137;28;20437;-74
2024/04/05 00:44:31;;;;;;;28.23;5.95;;;13.80;99.90;;;;;;5086954;28;20465;-74
2024/04/05 00:46:58;;;;;;;32.00;6.18;;;13.80;99.90;;;;;;5107531;27;20039;-74
2024/04/05 00:49:25;;;;;;;27.38;6.75;;;13.70;99.90;;;;;;5107609;27;20022;-74
2024/04/05 00:51:52;;;;;;;31.48;6.10;;;13.80;99.90;;;;;;5107133;27;20031;-74
2024/04/05 00:54:19;;;;;;;23.52;5.97;;;13.80;99.90;;;;;;5106699;27;20024;-75
2024/04/05 00:56:47;;;;;;;23.98;5.32;;;13.70;99.90;;;;;;5108235;27;20034;-74
2024/04/05 00:59:13;;;;;;;27.02;6.18;;;13.70;99.90;;;;;;5090014;28;22784;-74
2024/04/05 01:01:41;;;;;;;30.33;6.10;;;13.70;99.90;;;;;;5108299;27;20127;-74
2024/04/05 01:04:07;;;;;;;24.90;5.03;;;13.70;99.90;;;;;;5106458;27;20016;-75
2024/04/05 01:06:32;;;;;;;25.95;5.88;;;13.70;99.90;;;;;;5107693;27;22948;-75
2024/04/05 01:08:59;;;;;;;21.45;5.70;;;13.70;99.90;;;;;;5108255;27;20024;-74
2024/04/05 01:11:25;;;;;;;33.78;6.43;;;13.70;99.90;;;;;;5108282;27;20102;-74
2024/04/05 01:13:51;;;;;;;28.65;5.50;;;13.80;99.90;;;;;;5106701;27;20153;-74
2024/04/05 01:16:17;;;;;;;32.75;6.20;;;13.70;99.90;;;;;;5107997;27;20498;-74
2024/04/05 01:18:43;;;;;;;23.52;6.05;;;13.80;99.90;;;;;;5115317;27;20027;-74
2024/04/05 01:21:10;;;;;;;29.15;6.25;;;13.80;99.90;;;;;;5132589;27;20045;-74
2024/04/05 01:23:42;;;;;;;23.77;4.90;;;13.80;99.90;;;;;;5131614;27;20023;-73
2024/04/05 01:26:08;;;;;;;;;;;13.80;99.90;;;;;;5115959;27;20024;-75
2024/04/05 01:28:34;;;;;;;24.83;5.80;;;13.80;99.90;;;;;;5133192;27;19907;-76
2024/04/05 01:31:00;;;;;;;27.63;5.63;;;13.80;99.90;;;;;;5132603;27;20118;-75
2024/04/05 01:33:26;;;;;;;29.55;6.15;;;13.80;99.90;;;;;;5133390;27;20034;-76
2024/04/05 01:35:52;;;;;;;27.23;6.15;;;13.80;99.90;;;;;;5133729;27;20034;-76
2024/04/05 01:38:17;;;;;;;24.42;5.72;;;13.80;99.90;;;;;;5132247;27;20409;-75
2024/04/05 01:40:43;;;;;;;23.25;6.70;;;13.80;99.90;;;;;;5132088;27;20468;-76
2024/04/05 01:43:09;;;;;;;21.77;5.63;;;13.70;99.90;;;;;;5133048;27;20383;-76
2024/04/05 01:45:35;;;;;;;25.33;5.70;;;13.70;99.90;;;;;;5133302;27;20045;-76
2024/04/05 01:48:01;;;;;;;28.08;5.30;;;13.70;99.90;;;;;;5132922;27;20023;-76
2024/04/05 01:50:27;;;;;;;32.05;5.32;;;13.70;99.90;;;;;;5133156;27;20108;-75
2024/04/05 01:52:52;;;;;;;26.35;6.07;;;13.70;99.90;;;;;;5132924;27;20023;-75
2024/04/05 01:55:18;;;;;;;21.98;5.05;;;13.70;99.90;;;;;;5114854;27;20416;-75
2024/04/05 01:57:44;;;;;;;24.23;5.05;;;13.70;99.90;;;;;;5131058;27;20027;-76
2024/04/05 02:00:10;;;;;;;25.30;6.53;;;13.60;99.90;;;;;;5114304;27;20028;-76
2024/04/05 02:02:36;;;;;;;19.85;4.80;;;13.50;99.90;;;;;;5099890;27;20058;-76
2024/04/05 02:05:03;;;;;;;20.83;5.15;;;13.60;99.90;;;;;;5133175;27;20475;-76
2024/04/05 02:07:29;;;;;;;21.35;4.85;;;13.50;99.90;;;;;;5131495;27;20463;-76
2024/04/05 02:09:55;;;;;;;26.95;5.13;;;13.60;99.90;;;;;;5133403;27;20023;-75
2024/04/05 02:12:24;;;;;;;24.98;4.95;;;13.60;99.90;;;;;;5092952;27;20094;-76
2024/04/05 02:14:49;;;;;;;20.23;4.90;;;13.60;99.90;;;;;;5105586;28;20035;-76
2024/04/05 02:17:15;;;;;;;23.98;4.93;;;13.60;99.90;;;;;;5106060;27;20031;-75
2024/04/05 02:19:41;;;;;;;22.45;5.53;;;13.60;99.90;;;;;;5107262;27;21821;-76
2024/04/05 02:22:10;;;;;;;27.50;5.70;;;13.50;99.90;;;;;;5107215;28;20110;-76
2024/04/05 02:24:36;;;;;;;29.08;5.90;;;13.50;99.90;;;;;;5088139;28;20031;-75
2024/04/05 02:27:02;;;;;;;19.40;4.97;;;13.50;99.90;;;;;;5105864;28;20027;-76
2024/04/05 02:29:29;;;;;;;26.38;5.93;;;13.50;99.90;;;;;;5107330;28;20349;-76
2024/04/05 02:31:55;;;;;;;15.30;5.32;;;13.50;99.90;;;;;;5105866;28;20028;-75
2024/04/05 02:34:21;;;;;;;19.02;4.20;;;13.60;99.90;;;;;;5104533;28;20480;-75
2024/04/05 02:36:48;;;;;;;30.05;11.85;;;13.60;99.90;;;;;;5106449;28;20161;-74
2024/04/05 02:39:14;;;;;;;26.63;5.63;;;13.60;99.90;;;;;;5107274;28;20016;-75
2024/04/05 02:41:40;;;;;;;24.10;5.10;;;13.60;99.90;;;;;;5106405;28;20043;-75
2024/04/05 02:44:05;;;;;;;24.88;5.85;;;13.50;99.90;;;;;;5107213;28;21462;-75
2024/04/05 02:46:31;;;;;;;21.75;4.72;;;13.50;99.90;;;;;;5106663;28;20043;-75
2024/04/05 02:48:57;;;;;;;25.50;5.30;;;13.50;99.90;;;;;;5105196;28;20357;-75
2024/04/05 02:51:23;;;;;;;23.92;4.60;;;13.50;99.90;;;;;;5106537;28;20062;-75
2024/04/05 02:53:49;;;;;;;24.58;5.07;;;13.50;99.90;;;;;;5107112;28;20064;-76
2024/04/05 02:56:16;;;;;;;20.50;4.13;;;13.50;99.90;;;;;;5107136;28;20119;-75
2024/04/05 02:58:42;;;;;;;16.80;4.75;;;13.60;99.90;;;;;;5106894;28;20028;-75
2024/04/05 03:01:08;;;;;;;23.85;5.43;;;13.60;99.90;;;;;;5106830;28;20074;-75
2024/04/05 03:03:34;;;;;;;23.95;4.97;;;13.60;99.90;;;;;;5106706;28;20047;-76
2024/04/05 03:06:00;;;;;;;20.13;4.97;;;13.60;99.90;;;;;;5106327;28;20084;-76
2024/04/05 03:08:25;;;;;;;17.30;5.00;;;13.60;99.90;;;;;;5087045;28;20019;-75
2024/04/05 03:10:51;;;;;;;18.25;4.78;;;13.60;99.90;;;;;;5090153;28;20038;-76
2024/04/05 03:13:17;;;;;;;32.40;6.40;;;13.60;99.90;;;;;;5109465;27;20080;-75
2024/04/05 03:15:42;;;;;;;22.50;5.60;;;13.60;99.90;;;;;;5110210;27;20030;-75
2024/04/05 03:18:08;;;;;;;18.48;4.30;;;13.60;99.90;;;;;;5110462;27;20051;-75
2024/04/05 03:20:34;;;;;;;17.80;4.47;;;13.60;99.90;;;;;;5109463;27;20143;-75
2024/04/05 03:23:01;;;;;;;14.20;3.78;;;13.70;99.90;;;;;;5108695;27;20036;-73
2024/04/05 03:25:26;;;;;;;24.95;4.95;;;13.70;99.90;;;;;;5088302;28;20388;-74
2024/04/05 03:27:52;;;;;;;20.83;4.82;;;13.70;99.90;;;;;;5109136;28;20020;-75
2024/04/05 03:30:19;;;;;;;13.18;3.92;;;13.70;99.90;;;;;;5109127;27;20034;-73
2024/04/05 03:32:44;;;;;;;20.05;4.93;;;13.80;99.90;;;;;;5108802;28;20030;-73
2024/04/05 03:35:10;;;;;;;21.83;4.85;;;13.70;99.90;;;;;;5090431;28;20024;-74
2024/04/05 03:37:36;;;;;;;16.33;4.90;;;13.70;99.90;;;;;;5108316;27;20396;-73
2024/04/05 03:40:03;;;;;;;18.73;4.70;;;13.80;99.90;;;;;;5107983;27;20129;-75
2024/04/05 03:42:29;;;;;;;18.05;4.50;;;13.80;99.90;;;;;;5109384;27;20475;-74
2024/04/05 03:44:55;;;;;;;20.98;4.55;;;13.80;99.90;;;;;;5108976;28;20514;-73
2024/04/05 03:47:21;;;;;;;22.42;4.88;;;13.80;99.90;;;;;;5108562;28;20053;-72
2024/04/05 03:49:47;;;;;;;23.58;4.65;;;13.80;99.90;;;;;;5091205;28;20087;-72
2024/04/05 03:52:12;;;;;;;15.90;4.47;;;13.80;99.90;;;;;;5109764;27;20486;-73
2024/04/05 03:54:38;;;;;;;17.35;5.07;;;13.80;99.90;;;;;;5108636;27;20435;-72
2024/04/05 03:57:04;;;;;;;24.15;5.57;;;13.90;99.90;;;;;;5110379;27;20031;-73
2024/04/05 03:59:30;;;;;;;19.67;5.40;;;13.90;99.90;;;;;;5110121;27;20039;-73
2024/04/05 04:01:56;;;;;;;15.05;3.72;;;13.80;99.90;;;;;;5110101;28;20155;-75
2024/04/05 04:04:22;;;;;;;21.27;4.50;;;13.80;99.90;;;;;;5108401;27;20765;-74
2024/04/05 04:06:48;;;;;;;18.92;4.78;;;13.90;99.90;;;;;;5108652;28;20022;-74
2024/04/05 04:09:17;;;;;;;17.02;5.25;;;13.90;99.90;;;;;;5109486;28;20024;-75
2024/04/05 04:11:45;;;;;;;18.17;4.75;;;13.90;99.90;;;;;;5108742;27;20011;-75
2024/04/05 04:14:14;;;;;;;19.15;4.63;;;13.90;99.90;;;;;;5109349;27;20047;-73
2024/04/05 04:16:43;;;;;;;23.77;5.00;;;13.90;99.90;;;;;;5109925;27;20027;-74
2024/04/05 04:19:12;;;;;;;17.52;4.82;;;13.90;99.90;;;;;;5108976;27;20038;-75
2024/04/05 04:21:38;;;;;;;19.55;5.18;;;13.90;99.90;;;;;;5109450;27;20114;-74
2024/04/05 04:24:04;;;;;;;17.00;4.85;;;13.90;99.90;;;;;;5109606;27;20099;-75
2024/04/05 04:26:29;;;;;;;16.65;4.85;;;13.90;99.90;;;;;;5107879;28;20087;-74
2024/04/05 04:28:57;;;;;;;23.95;5.50;;;13.90;99.90;;;;;;5108636;27;20118;-74
2024/04/05 04:31:24;;;;;;;20.73;5.55;;;13.90;99.90;;;;;;5109410;27;20024;-74
2024/04/05 04:33:53;;;;;;;23.27;5.10;;;13.90;99.90;;;;;;5105845;27;20016;-74
2024/04/05 04:36:20;;;;;;;25.50;6.22;;;13.90;99.90;;;;;;5109416;27;20019;-74
2024/04/05 04:38:46;;;;;;;23.85;5.32;;;13.90;99.90;;;;;;5109436;27;20095;-74
2024/04/05 04:41:14;;;;;;;20.38;4.85;;;13.90;99.90;;;;;;5109746;27;20168;-74
2024/04/05 04:43:42;;;;;;;21.88;5.28;;;13.90;99.90;;;;;;5108593;27;20020;-74
2024/04/05 04:46:08;;;;;;;25.63;4.95;;;14.00;99.90;;;;;;5108186;28;20031;-75
2024/04/05 04:48:36;;;;;;;17.30;4.60;;;14.00;99.90;;;;;;5108681;28;20036;-75
2024/04/05 04:51:03;;;;;;;26.40;5.60;;;14.00;99.90;;;;;;5108671;27;20535;-75
2024/04/05 04:53:29;;;;;;;22.15;5.45;;;14.00;99.90;;;;;;5108784;27;20019;-74
2024/04/05 04:55:54;;;;;;;18.48;4.75;;;14.00;99.90;;;;;;5109044;27;20024;-74
2024/04/05 04:58:23;;;;;;;13.80;4.18;;;14.00;99.90;;;;;;5090133;27;20111;-74
2024/04/05 05:00:49;;;;;;;13.48;4.07;;;14.00;99.90;;;;;;5107945;27;20493;-75
2024/04/05 05:03:15;;;;;;;17.77;4.78;;;14.00;99.90;;;;;;5107228;27;20027;-75
2024/04/05 05:05:42;;;;;;;20.52;5.43;;;14.00;99.90;;;;;;5087075;28;20353;-76
2024/04/05 05:08:13;;;;;;;18.38;5.05;;;14.10;99.90;;;;;;5089283;28;20042;-75
2024/04/05 05:10:41;;;;;;;21.95;5.28;;;14.00;99.90;;;;;;5107628;28;20491;-75
2024/04/05 05:13:10;;;;;;;24.58;5.65;;;14.10;99.90;;;;;;5107871;28;20023;-75
2024/04/05 05:15:36;;;;;;;16.17;5.20;;;14.00;99.90;;;;;;5087426;28;20058;-74
2024/04/05 05:18:02;;;;;;;24.15;4.88;;;14.00;99.90;;;;;;5108954;27;20474;-76
2024/04/05 05:20:28;;;;;;;16.88;5.60;;;14.10;99.90;;;;;;5108501;27;20066;-74
2024/04/05 05:22:54;;;;;;;15.38;5.03;;;14.00;99.90;;;;;;5108340;27;20039;-75
2024/04/05 05:25:20;;;;;;;18.75;5.63;;;14.00;99.90;;;;;;5088604;28;20038;-75
2024/04/05 05:27:46;;;;;;;17.85;6.63;;;14.00;99.90;;;;;;5107967;28;20031;-75
2024/04/05 05:30:12;;;;;;;12.90;5.03;;;14.10;99.90;;;;;;5108219;27;20145;-75
2024/04/05 05:32:38;;;;;;;18.70;5.72;;;14.10;99.90;;;;;;5107628;28;20569;-76
2024/04/05 05:35:07;;;;;;;19.10;5.30;;;14.10;99.90;;;;;;5089154;28;20024;-75
2024/04/05 05:37:33;;;;;;;17.95;5.15;;;14.20;99.90;;;;;;5107843;28;20096;-76
2024/04/05 05:39:59;;;;;;;15.32;4.70;;;14.10;99.90;;;;;;5108443;28;20091;-76
2024/04/05 05:42:27;;;;;;;15.10;4.78;;;14.20;99.90;;;;;;5107961;27;20502;-76
2024/04/05 05:44:53;;;;;;;20.65;4.72;;;14.10;99.90;;;;;;5107849;28;20019;-76
2024/04/05 05:47:19;;;;;;;13.15;4.82;;;14.10;99.90;;;;;;5111006;27;20039;-76
2024/04/05 05:49:44;;;;;;;19.10;5.47;;;14.20;99.90;;;;;;5112401;28;20489;-75
2024/04/05 05:52:10;;;;;;;18.00;5.80;;;14.20;99.90;;;;;;5112206;28;20157;-75
2024/04/05 05:54:36;;;;;;;17.52;6.25;;;14.20;99.90;;;;;;5094886;28;20030;-76
2024/04/05 05:57:03;;;;;;;14.75;4.95;;;14.20;99.90;;;;;;5112846;28;20144;-76
2024/04/05 05:59:30;;;;;;;15.10;5.57;;;14.30;99.90;;;;;;5094936;28;20473;-76
2024/04/05 06:01:56;;;;;;;14.98;5.38;;;14.30;99.90;;;;;;5111480;28;20180;-76
2024/04/05 06:04:25;;;;;;;18.98;6.68;;;14.30;99.90;;;;;;5112786;28;20399;-77
2024/04/05 06:06:51;;;;;;;18.08;5.72;;;14.40;99.90;;;;;;5113043;28;20019;-77
2024/04/05 06:09:17;;;;;;;15.23;5.15;;;14.30;99.90;;;;;;5112440;28;20024;-75
2024/04/05 06:11:45;;;;;;;17.45;4.70;;;14.30;99.90;;;;;;5112745;28;20020;-76
2024/04/05 06:14:11;;;;;;;23.05;5.93;;;14.30;99.90;;;;;;5111907;28;20464;-77
2024/04/05 06:16:37;;;;;;;17.83;5.18;;;14.30;99.90;;;;;;5077120;28;20034;-77
2024/04/05 06:19:03;;;;;;;16.92;5.15;;;14.40;99.90;;;;;;5087110;28;20499;-76
2024/04/05 06:21:29;;;;;;;19.50;5.20;;;14.40;99.90;;;;;;5112159;28;20502;-77
2024/04/05 06:23:59;;;;;;;12.10;5.22;;;14.40;99.90;;;;;;5095039;28;20016;-77
2024/04/05 06:26:26;;;;;;;15.30;4.90;;;14.50;99.90;;;;;;5129032;28;20391;-77
2024/04/05 06:28:52;;;;;;;12.48;4.63;;;14.50;99.90;;;;;;5112590;28;20574;-78
2024/04/05 06:31:18;;;;;;;18.45;4.78;;;14.40;99.90;;;;;;5117871;28;20034;-77
2024/04/05 06:33:46;;;;;;;17.75;5.03;;;14.50;99.90;;;;;;5113060;28;20028;-77
2024/04/05 06:36:12;;;;;;;19.17;4.53;;;14.50;99.90;;;;;;5118168;28;20468;-78
2024/04/05 06:38:38;;;;;;;17.75;4.80;;;14.50;99.90;;;;;;5107013;28;20024;-78
2024/04/05 06:41:04;;;;;;;15.52;4.65;;;14.50;99.90;;;;;;5131920;28;20012;-77
2024/04/05 06:43:31;;;;;;;16.15;4.55;;;14.60;99.90;;;;;;5132706;28;20479;-77
2024/04/05 06:46:05;;;;;;;15.25;4.78;;;14.60;99.90;;;;;;5135589;27;20171;-77
2024/04/05 06:48:31;;;;;;;13.13;4.60;;;14.60;99.90;;;;;;5136175;27;20490;-78
2024/04/05 06:50:57;;;;;;;13.77;4.10;;;14.60;99.90;;;;;;5137309;27;20023;-78
2024/04/05 06:53:30;;;;;;;15.85;4.45;;;14.60;99.90;;;;;;5136548;27;20046;-78
2024/04/05 06:55:56;;;;;;;16.17;4.00;;;14.70;99.90;;;;;;5136995;27;20095;-78
2024/04/05 06:58:22;;;;;;;11.52;3.70;;;14.70;99.90;;;;;;5134981;27;20126;-78
2024/04/05 07:00:48;;;;;;;12.13;3.42;;;14.70;99.90;;;;;;5136395;27;20035;-78
2024/04/05 07:03:14;;;;;;;14.48;3.78;;;14.80;99.90;;;;;;5135535;27;20030;-78
2024/04/05 07:05:40;;;;;;;12.15;3.67;;;14.80;99.90;;;;;;5123171;27;20023;-78
2024/04/05 07:08:07;;;;;;;10.50;3.65;;;14.80;99.90;;;;;;5135508;27;20033;-78
2024/04/05 07:10:34;;;;;;;10.63;3.65;;;14.80;99.90;;;;;;5136714;27;20478;-78
2024/04/05 07:13:00;;;;;;;10.82;3.88;;;14.80;99.90;;;;;;5135288;27;20042;-78
2024/04/05 07:15:26;;;;;;;11.15;4.00;;;14.80;99.90;;;;;;5118106;27;20051;-79
2024/04/05 07:17:54;;;;;;;10.88;3.63;;;14.80;99.90;;;;;;5124268;27;20023;-78
2024/04/05 07:20:20;;;;;;;11.45;3.55;;;14.80;99.90;;;;;;5099427;28;20364;-78
2024/04/05 07:22:47;;;;;;;15.43;4.28;;;14.80;99.90;;;;;;5121373;27;20027;-78
2024/04/05 07:25:13;;;;;;;13.65;3.70;;;14.90;99.90;;;;;;5101237;28;20058;-79
2024/04/05 07:27:41;;;;;;;9.68;3.28;;;14.90;99.90;;;;;;5122400;27;20085;-78
2024/04/05 07:30:08;;;;;;;14.15;3.40;;;14.80;99.90;;;;;;5108714;27;20090;-78
2024/04/05 07:32:34;;;;;;;9.65;2.55;;;14.90;99.90;;;;;;5117850;27;20100;-79
2024/04/05 07:35:00;;;;;;;11.48;2.80;;;14.90;99.90;;;;;;5117232;27;20022;-78
2024/04/05 07:37:26;;;;;;;10.60;2.80;;;14.90;99.90;;;;;;5133502;27;20109;-79
2024/04/05 07:39:54;;;;;;;8.65;2.60;;;15.00;99.90;;;;;;5122625;27;20104;-79
2024/04/05 07:42:20;;;;;;;10.25;2.90;;;15.00;99.90;;;;;;5107714;27;20164;-79
2024/04/05 07:44:47;;;;;;;12.43;3.33;;;15.00;99.90;;;;;;5113617;27;20594;-79
2024/04/05 07:47:13;;;;;;;7.68;2.72;;;15.10;99.90;;;;;;5125184;27;20566;-79
2024/04/05 07:49:39;;;;;;;10.38;2.85;;;15.10;99.90;;;;;;5124413;27;20095;-78
2024/04/05 07:52:05;;;;;;;9.27;2.55;;;15.20;99.90;;;;;;5126887;27;20027;-78
2024/04/05 07:54:31;;;;;;;11.00;3.38;;;15.20;99.90;;;;;;5134167;27;20023;-78
2024/04/05 07:56:57;;;;;;;9.50;2.45;;;15.30;99.90;;;;;;5130773;27;20112;-78
2024/04/05 07:59:23;;;;;;;10.05;2.53;;;15.40;99.90;;;;;;5099000;28;20067;-79
2024/04/05 08:01:49;;;;;;;7.95;2.83;;;15.50;99.90;;;;;;5120712;27;20131;-79
2024/04/05 08:04:15;;;;;;;6.45;2.05;;;15.50;99.90;;;;;;5126861;27;20446;-79
2024/04/05 08:06:41;;;;;;;12.55;2.47;;;15.60;99.90;;;;;;5111471;27;20035;-79
2024/04/05 08:09:07;;;;;;;7.05;2.10;;;15.60;99.90;;;;;;5127734;27;20019;-79
2024/04/05 08:11:33;;;;;;;7.82;2.10;;;15.70;99.90;;;;;;5093453;28;20429;-80
2024/04/05 08:13:59;;;;;;;10.00;1.90;;;15.70;99.90;;;;;;5121106;27;20020;-80
2024/04/05 08:16:26;;;;;;;8.60;2.65;;;15.70;99.90;;;;;;5113518;27;20067;-80
2024/04/05 08:18:54;;;;;;;6.90;2.28;;;15.80;99.90;;;;;;5097508;28;20034;-79
2024/04/05 08:21:20;;;;;;;13.40;2.90;;;15.80;99.90;;;;;;5105212;27;20183;-80
2024/04/05 08:23:46;;;;;;;7.53;2.08;;;15.90;99.90;;;;;;5101471;27;20108;-82
2024/04/05 08:26:12;;;;;;;4.55;1.88;;;15.90;99.90;;;;;;5129208;27;20031;-80
2024/04/05 08:28:38;;;;;;;5.05;1.88;;;15.90;99.90;;;;;;5132924;27;20035;-80
2024/04/05 08:31:04;;;;;;;6.60;2.05;;;16.00;99.90;;;;;;5116381;27;20011;-80
2024/04/05 08:33:30;;;;;;;10.95;2.05;;;16.00;99.90;;;;;;5114708;27;20107;-79
2024/04/05 08:35:56;;;;;;;5.55;2.20;;;16.00;99.90;;;;;;5113251;27;20023;-81
2024/04/05 08:38:22;;;;;;;6.80;1.92;;;16.10;99.90;;;;;;5116378;27;20104;-83
2024/04/05 08:40:49;;;;;;;5.40;1.88;;;16.10;99.90;;;;;;5118479;27;20533;-82
2024/04/05 08:43:17;;;;;;;6.32;1.70;;;16.20;99.90;;;;;;5134758;27;20023;-79
2024/04/05 08:45:44;;;;;;;6.80;1.90;;;16.20;99.90;;;;;;5134442;27;20073;-80
2024/04/05 08:48:11;;;;;;;4.28;1.85;;;16.20;99.90;;;;;;5135127;27;20023;-74
2024/04/05 08:50:38;;;;;;;6.90;1.85;;;16.30;99.90;;;;;;5107897;27;20492;-84
2024/04/05 08:53:08;;;;;;;4.75;1.85;;;16.20;99.90;;;;;;5113857;27;20028;-77
2024/04/05 08:55:37;;;;;;;5.53;2.00;;;16.20;99.90;;;;;;5124174;27;20024;-76
2024/04/05 08:58:04;;;;;;;9.35;2.00;;;16.30;99.90;;;;;;5130700;27;20034;-74
2024/04/05 09:00:30;;;;;;;6.75;2.25;;;16.30;99.90;;;;;;5128054;27;20020;-75
2024/04/05 09:02:59;;;;;;;7.80;2.28;;;16.30;99.90;;;;;;5112212;27;20118;-79
2024/04/05 09:05:25;;;;;;;4.07;1.92;;;16.20;99.90;;;;;;5124349;27;20027;-77
2024/04/05 09:08:01;;;;;;;4.18;2.08;;;16.20;99.90;;;;;;5105646;27;20077;-77
2024/04/05 09:10:27;;;;;;;9.20;2.10;;;16.20;99.90;;;;;;5126363;27;20540;-77
2024/04/05 09:12:57;;;;;;;4.10;1.77;;;16.20;99.90;;;;;;5114601;27;20016;-77
2024/04/05 09:15:24;;;;;;;5.88;2.50;;;16.20;99.90;;;;;;5131887;27;20028;-77
2024/04/05 09:17:50;;;;;;;7.22;2.00;;;16.30;99.90;;;;;;5132111;27;20023;-77
2024/04/05 09:20:24;;;;;;;6.03;2.22;;;16.20;99.90;;;;;;5121771;27;20030;-76
2024/04/05 09:23:01;;;;;;;6.05;1.85;;;16.30;99.90;;;;;;5132544;27;20031;-76
2024/04/05 09:25:28;;;;;;;4.45;2.00;;;16.30;99.90;;;;;;5132585;27;20046;-76
2024/04/05 09:28:07;;;;;;;6.45;2.05;;;16.30;99.90;;;;;;5132484;27;20475;-76
2024/04/05 09:30:35;;;;;;;6.07;1.75;;;16.30;99.90;;;;;;5114658;27;20031;-78
2024/04/05 09:33:01;;;;;;;7.63;1.65;;;16.30;99.90;;;;;;5117648;27;20023;-77
2024/04/05 09:35:28;;;;;;;4.00;1.50;;;16.30;99.90;;;;;;5122444;27;20102;-78
2024/04/05 09:37:55;;;;;;;6.25;1.70;;;16.40;99.90;;;;;;5115876;27;20539;-78
2024/04/05 09:40:25;;;;;;;8.18;2.22;;;16.50;99.90;;;;;;5119263;27;20467;-78
2024/04/05 09:42:57;;;;;;;6.65;3.28;;;16.50;99.90;;;;;;5104028;27;20087;-77
2024/04/05 09:45:25;;;;;;;7.38;3.28;;;16.50;99.90;;;;;;5113105;27;20031;-77
2024/04/05 09:47:52;;;;;;;7.15;2.65;;;16.60;99.90;;;;;;5133593;27;20037;-78
2024/04/05 09:50:21;;;;;;;7.90;2.92;;;16.60;99.90;;;;;;5114187;27;20520;-77
2024/04/05 09:52:51;;;;;;;5.07;1.60;;;16.70;99.90;;;;;;5132389;27;20031;-78
2024/04/05 09:55:20;;;;;;;7.80;2.03;;;16.70;99.90;;;;;;5111272;27;20035;-76
2024/04/05 09:57:46;;;;;;;4.35;1.60;;;16.80;99.90;;;;;;5114299;27;20041;-77
2024/04/05 10:00:20;;;;;;;5.45;1.73;;;16.80;99.90;;;;;;5130393;27;20437;-77
2024/04/05 10:02:50;;;;;;;4.40;1.60;;;16.80;99.90;;;;;;5114136;27;20035;-79
2024/04/05 10:05:28;;;;;;;7.45;1.67;;;16.90;99.90;;;;;;5127590;27;20069;-77
2024/04/05 10:07:54;;;;;;;6.72;1.88;;;16.90;99.90;;;;;;5128610;27;20019;-80
2024/04/05 10:10:33;;;;;;;3.30;1.48;;;16.90;99.90;;;;;;5127256;27;20019;-78
2024/04/05 10:13:17;;;;;;;4.70;1.40;;;17.00;99.90;;;;;;5127969;27;20027;-78
2024/04/05 10:15:57;;;;;;;5.75;1.90;;;17.10;99.90;;;;;;5100402;28;20541;-79
2024/04/05 10:18:39;;;;;;;4.30;1.52;;;17.20;99.90;;;;;;5128777;27;20027;-78
2024/04/05 10:21:09;;;;;;;6.38;2.00;;;17.30;99.90;;;;;;5109215;28;20031;-78
2024/04/05 10:23:39;;;;;;;6.60;1.33;;;17.30;99.90;;;;;;5130692;27;20092;-80
2024/04/05 10:26:11;;;;;;;2.05;1.20;;;17.40;99.90;;;;;;5130927;28;20027;-77
2024/04/05 10:28:37;;;;;;;5.10;1.50;;;17.50;99.90;;;;;;5133385;28;20073;-79
2024/04/05 10:31:05;;;;;;;3.15;1.40;;;17.60;99.90;;;;;;5132318;28;20119;-79
2024/04/05 10:33:32;;;;;;;4.63;1.85;;;17.80;99.90;;;;;;5132710;28;20526;-80
2024/04/05 10:36:00;;;;;;;6.30;1.77;;;17.80;99.90;;;;;;5132750;28;20026;-78
2024/04/05 10:38:29;;;;;;;3.33;1.48;;;17.90;99.90;;;;;;5132421;28;20031;-81
2024/04/05 10:41:02;;;;;;;4.40;1.70;;;18.00;99.90;;;;;;5112932;28;20027;-81
2024/04/05 10:43:28;;;;;;;4.45;1.33;;;18.10;99.90;;;;;;5132072;28;20019;-80
2024/04/05 10:45:55;;;;;;;2.95;1.58;;;18.20;99.90;;;;;;5131973;28;20020;-80
2024/04/05 10:48:22;;;;;;;2.90;1.65;;;18.20;99.90;;;;;;5132675;28;20075;-78
2024/04/05 10:50:48;;;;;;;3.25;1.40;;;18.20;99.90;;;;;;5132242;28;20030;-81
2024/04/05 10:53:23;;;;;;;2.63;1.35;;;18.30;99.90;;;;;;5114257;28;20012;-81
2024/04/05 10:55:51;;;;;;;6.15;1.70;;;18.30;99.90;;;;;;5100262;28;20409;-82
2024/04/05 10:58:17;;;;;;;4.70;1.48;;;18.30;99.90;;;;;;5132250;28;20080;-77
2024/04/05 11:00:44;;;;;;;6.22;1.80;;;18.20;99.90;;;;;;5113879;28;20483;-82
2024/04/05 11:03:13;;;;;;;4.75;1.75;;;18.20;99.90;;;;;;5113587;28;20039;-83
2024/04/05 11:05:39;;;;;;;5.22;1.60;;;18.20;99.90;;;;;;5132286;28;20015;-78
2024/04/05 11:08:06;;;;;;;3.08;1.55;;;18.30;99.90;;;;;;5114220;28;20111;-80
2024/04/05 11:10:36;;;;;;;5.47;1.55;;;18.30;99.90;;;;;;5102676;28;20008;-79
2024/04/05 11:13:15;;;;;;;3.80;1.73;;;18.30;99.90;;;;;;5132339;28;20059;-83
2024/04/05 11:15:44;;;;;;;6.28;1.70;;;18.30;99.90;;;;;;5132299;28;20024;-80
2024/04/05 11:18:11;;;;;;;3.45;1.23;;;18.30;99.90;;;;;;5113955;28;20034;-79
2024/04/05 11:20:39;;;;;;;4.07;1.63;;;18.30;99.90;;;;;;5132182;28;20019;-82
2024/04/05 11:23:16;;;;;;;5.15;1.77;;;18.40;99.90;;;;;;5128894;28;20106;-81
2024/04/05 11:25:54;;;;;;;7.93;2.00;;;18.40;99.90;;;;;;5111883;28;20019;-77
2024/04/05 11:28:23;;;;;;;4.00;1.70;;;18.40;99.90;;;;;;5132174;28;20080;-81
2024/04/05 11:30:50;;;;;;;5.82;1.80;;;18.40;99.90;;;;;;5115189;27;20110;-77
2024/04/05 11:33:16;;;;;;;3.58;1.42;;;18.40;99.90;;;;;;5135094;27;20025;-81
2024/04/05 11:35:43;;;;;;;6.15;2.05;;;18.40;99.90;;;;;;5122734;27;20027;-79
2024/04/05 11:38:09;;;;;;;4.55;1.40;;;18.40;99.90;;;;;;5116205;27;20447;-80
2024/04/05 11:40:34;;;;;;;5.32;1.92;;;18.40;99.90;;;;;;5122640;27;20063;-78
2024/04/05 11:43:01;;;;;;;2.63;1.42;;;18.50;99.90;;;;;;5135022;27;20383;-77
2024/04/05 11:45:26;;;;;;;5.65;1.58;;;18.50;99.90;;;;;;5135606;27;20176;-82
2024/04/05 11:47:53;;;;;;;2.88;1.70;;;18.50;99.90;;;;;;5135948;27;20022;-81
2024/04/05 11:50:19;;;;;;;7.68;1.40;;;18.40;99.90;;;;;;5136247;27;20024;-81
2024/04/05 11:52:45;;;;;;;4.85;1.77;;;18.40;99.90;;;;;;5135521;27;20375;-83
2024/04/05 11:55:11;;;;;;;4.07;1.75;;;18.40;99.90;;;;;;5135085;27;20027;-82
2024/04/05 11:57:36;;;;;;;3.63;1.13;;;18.20;99.90;;;;;;5134694;27;20026;-79
2024/04/05 12:00:10;;;;;;;3.47;1.58;;;18.10;99.90;;;;;;5117830;27;20041;-78
2024/04/05 12:02:39;;;;;;;5.25;2.00;;;17.90;99.90;;;;;;5135046;27;20031;-80
2024/04/05 12:05:07;;;;;;;5.80;2.15;;;17.80;99.90;;;;;;5103225;27;20024;-80
2024/04/05 12:07:34;;;;;;;4.20;1.52;;;17.60;99.90;;;;;;5116649;27;20080;-79
2024/04/05 12:09:59;;;;;;;2.08;1.58;;;17.60;99.90;;;;;;5124546;27;20020;-82
2024/04/05 12:12:28;;;;;;;2.42;1.73;;;17.40;99.90;;;;;;5134838;27;20015;-80
2024/04/05 12:14:55;;;;;;;6.30;2.20;;;17.30;99.90;;;;;;5135062;27;20019;-79
2024/04/05 12:17:22;;;;;;;5.55;2.25;;;17.20;99.90;;;;;;5135309;27;20047;-80
2024/04/05 12:19:47;;;;;;;4.15;1.92;;;17.30;99.90;;;;;;5134763;27;20063;-81
2024/04/05 12:22:13;;;;;;;4.47;2.10;;;17.40;99.90;;;;;;5134822;27;20490;-81
2024/04/05 12:24:39;;;;;;;3.22;1.80;;;17.60;99.90;;;;;;5134720;27;20019;-82
2024/04/05 12:27:06;;;;;;;4.53;1.88;;;17.60;99.90;;;;;;5116486;27;20045;-81
2024/04/05 12:29:31;;;;;;;3.85;2.15;;;17.80;99.90;;;;;;5134776;27;20498;-82
2024/04/05 12:31:57;;;;;;;4.40;1.58;;;17.90;99.90;;;;;;5134173;27;20122;-81
2024/04/05 12:34:23;;;;;;;4.03;1.80;;;18.00;99.90;;;;;;5122852;27;20055;-81
2024/04/05 12:36:50;;;;;;;2.65;1.60;;;18.10;99.90;;;;;;5109486;27;20022;-80
2024/04/05 12:39:28;;;;;;;2.45;1.27;;;18.20;99.90;;;;;;5127793;27;20085;-82